Time;durP1;ratioP1;P1;durP2;ratioP2;P2;SDS_P1;SDS_P2;PMS_P1;PMS_P2;Temp;Humidity;BMP_temperature;BMP_pressure;BME280_temperature;BME280_humidity;BME280_pressure;Samples;Min_cycle;Max_cycle;Signal;HPM_P1;HPM_P2
2022/06/26 00:00:05;;;;;;;;;;;;;;;20.43;100.00;100402.25;3056770;19;965;-48
2022/06/26 00:01:11;;;;;;;;;;;;;;;20.45;100.00;100399.38;3056626;19;889;-47
2022/06/26 00:02:13;;;;;;;;;;;;;;;20.44;100.00;100405.81;3056787;19;901;-48
2022/06/26 00:03:17;;;;;;;;;;;;;;;20.44;100.00;100406.66;3056404;19;1063;-48
2022/06/26 00:04:19;;;;;;;;;;;;;;;20.45;100.00;100399.38;3056784;19;884;-48
2022/06/26 00:05:24;;;;;;;;;;;;;;;20.46;100.00;100403.78;3056714;19;948;-48
2022/06/26 00:06:27;;;;;;;;;;;;;;;20.47;100.00;100409.06;3056807;19;987;-48
2022/06/26 00:07:31;;;;;;;;;;;;;;;20.48;100.00;100399.91;3056217;19;996;-48
2022/06/26 00:08:33;;;;;;;;;;;;;;;20.47;100.00;100411.78;3056810;19;1133;-48
2022/06/26 00:09:38;;;;;;;;;;;;;;;20.45;100.00;100402.94;3056320;19;973;-48
2022/06/26 00:10:41;;;;;;;;;;;;;;;20.44;100.00;100403.94;3056896;19;871;-48
2022/06/26 00:11:45;;;;;;;;;;;;;;;20.44;100.00;100403.94;3056338;19;1048;-48
2022/06/26 00:12:47;;;;;;;;;;;;;;;20.43;100.00;100413.09;3056808;19;867;-47
2022/06/26 00:13:52;;;;;;;;;;;;;;;20.42;100.00;100414.09;3056494;19;913;-47
2022/06/26 00:14:54;;;;;;;;;;;;;;;20.42;100.00;100405.97;3055865;19;1856;-47
2022/06/26 00:15:58;;;;;;;;;;;;;;;20.41;100.00;100409.69;3056425;19;1036;-48
2022/06/26 00:17:00;;;;;;;;;;;;;;;20.40;100.00;100401.75;3056854;19;984;-48
2022/06/26 00:18:04;;;;;;;;;;;;;;;20.39;100.00;100403.59;3056348;19;996;-48
2022/06/26 00:19:06;;;;;;;;;;;;;;;20.39;100.00;100409.03;3056677;19;913;-48
2022/06/26 00:20:11;;;;;;;;;;;;;;;20.39;100.00;100410.88;3056247;19;796;-48
2022/06/26 00:21:13;;;;;;;;;;;;;;;20.37;100.00;100413.75;3056726;19;913;-47
2022/06/26 00:22:17;;;;;;;;;;;;;;;20.36;100.00;100422.88;3056150;19;1629;-48
2022/06/26 00:23:19;;;;;;;;;;;;;;;20.34;100.00;100405.88;3056543;19;1028;-48
2022/06/26 00:24:24;;;;;;;;;;;;;;;20.33;100.00;100408.75;3056483;19;996;-48
2022/06/26 00:25:26;;;;;;;;;;;;;;;20.32;100.00;100416.03;3056736;19;964;-48
2022/06/26 00:26:30;;;;;;;;;;;;;;;20.31;100.00;100424.31;3056357;19;1198;-48
2022/06/26 00:27:32;;;;;;;;;;;;;;;20.29;100.00;100420.91;3056045;19;1793;-48
2022/06/26 00:28:37;;;;;;;;;;;;;;;20.26;100.00;100411.25;3056191;19;957;-48
2022/06/26 00:29:39;;;;;;;;;;;;;;;20.25;100.00;100411.41;3056206;19;953;-48
2022/06/26 00:30:43;;;;;;;;;;;;;;;20.23;100.00;100406.16;3055602;19;932;-48
2022/06/26 00:31:45;;;;;;;;;;;;;;;20.24;100.00;100420.56;3055700;19;1169;-48
2022/06/26 00:32:50;;;;;;;;;;;;;;;20.23;100.00;100422.41;3055744;19;869;-48
2022/06/26 00:33:52;;;;;;;;;;;;;;;20.22;100.00;100414.44;3056386;19;1043;-48
2022/06/26 00:34:56;;;;;;;;;;;;;;;20.20;100.00;100422.72;3055993;19;1858;-47
2022/06/26 00:35:58;;;;;;;;;;;;;;;20.19;100.00;100415.59;3056542;19;1233;-48
2022/06/26 00:37:02;;;;;;;;;;;;;;;20.18;100.00;100413.91;3056350;19;1682;-48
2022/06/26 00:38:04;;;;;;;;;;;;;;;20.17;100.00;100422.19;3056368;19;869;-48
2022/06/26 00:39:09;;;;;;;;;;;;;;;20.18;100.00;100424.72;3055318;19;1267;-47
2022/06/26 00:40:11;;;;;;;;;;;;;;;20.17;100.00;100417.59;3055287;19;951;-48
2022/06/26 00:41:15;;;;;;;;;;;;;;;20.18;100.00;100422.03;3055371;19;939;-48
2022/06/26 00:42:17;;;;;;;;;;;;;;;20.18;100.00;100421.16;3056397;19;1035;-47
2022/06/26 00:43:21;;;;;;;;;;;;;;;20.18;100.00;100419.31;3056436;19;1014;-48
2022/06/26 00:44:24;;;;;;;;;;;;;;;20.19;100.00;100423.72;3055452;19;1014;-47
2022/06/26 00:45:28;;;;;;;;;;;;;;;20.18;100.00;100424.72;3055354;19;920;-48
2022/06/26 00:46:30;;;;;;;;;;;;;;;20.19;100.00;100431.00;3055676;19;940;-48
2022/06/26 00:47:34;;;;;;;;;;;;;;;20.18;100.00;100421.16;3057721;19;819;-48
2022/06/26 00:48:37;;;;;;;;;;;;;;;20.16;100.00;100426.78;3056308;19;976;-48
2022/06/26 00:49:41;;;;;;;;;;;;;;;20.16;100.00;100432.19;3055960;19;1151;-48
2022/06/26 00:50:43;;;;;;;;;;;;;;;20.15;100.00;100427.78;3056157;19;1067;-47
2022/06/26 00:51:49;;;;;;;;;;;;;;;20.15;100.00;100422.34;3056110;19;918;-48
2022/06/26 00:52:54;;;;;;;;;;;;;;;20.15;100.00;100435.91;3056062;19;969;-48
2022/06/26 00:53:56;;;;;;;;;;;;;;;20.14;100.00;100423.38;3055432;19;890;-47
2022/06/26 00:55:00;;;;;;;;;;;;;;;20.13;100.00;100437.91;3055076;19;1858;-48
2022/06/26 00:56:03;;;;;;;;;;;;;;;20.14;100.00;100434.19;3056256;19;945;-48
2022/06/26 00:57:07;;;;;;;;;;;;;;;20.14;100.00;100423.38;3055580;19;869;-47
2022/06/26 00:58:09;;;;;;;;;;;;;;;20.14;100.00;100431.50;3054829;19;1031;-47
2022/06/26 00:59:13;;;;;;;;;;;;;;;20.15;100.00;100433.19;3056087;19;1664;-48
2022/06/26 01:00:20;;;;;;;;;;;;;;;20.15;100.00;100435.91;3055409;19;1044;-49
2022/06/26 01:01:22;;;;;;;;;;;;;;;20.14;100.00;100432.34;3055260;19;897;-48
2022/06/26 01:02:26;;;;;;;;;;;;;;;20.14;100.00;100435.06;3055237;19;893;-48
2022/06/26 01:03:28;;;;;;;;;;;;;;;20.13;100.00;100436.06;3055732;19;1369;-48
2022/06/26 01:04:32;;;;;;;;;;;;;;;20.14;100.00;100447.75;3056347;19;1042;-48
2022/06/26 01:05:34;;;;;;;;;;;;;;;20.14;100.00;100445.03;3054972;19;1032;-48
2022/06/26 01:06:39;;;;;;;;;;;;;;;20.12;100.00;100430.78;3055707;19;842;-47
2022/06/26 01:07:41;;;;;;;;;;;;;;;20.13;100.00;100443.34;3055579;19;1060;-48
2022/06/26 01:08:45;;;;;;;;;;;;;;;20.12;100.00;100438.94;3054979;19;1023;-47
2022/06/26 01:09:47;;;;;;;;;;;;;;;20.11;100.00;100440.78;3055029;19;992;-48
2022/06/26 01:10:52;;;;;;;;;;;;;;;20.10;100.00;100439.06;3055236;19;890;-47
2022/06/26 01:11:57;;;;;;;;;;;;;;;20.09;100.00;100436.53;3055004;19;1187;-48
2022/06/26 01:12:59;;;;;;;;;;;;;;;20.07;100.00;100441.25;3055010;19;909;-48
2022/06/26 01:14:04;;;;;;;;;;;;;;;20.05;100.00;100445.97;3054774;19;969;-48
2022/06/26 01:15:07;;;;;;;;;;;;;;;20.03;100.00;100437.16;3055177;19;1107;-48
2022/06/26 01:16:12;;;;;;;;;;;;;;;20.03;100.00;100442.59;3054239;19;1854;-47
2022/06/26 01:17:14;;;;;;;;;;;;;;;20.00;100.00;100437.47;3055161;19;898;-48
2022/06/26 01:18:19;;;;;;;;;;;;;;;19.98;100.00;100434.06;3055227;19;917;-48
2022/06/26 01:19:21;;;;;;;;;;;;;;;19.94;100.00;100433.50;3055194;19;893;-48
2022/06/26 01:20:25;;;;;;;;;;;;;;;19.93;100.00;100436.38;3055208;19;929;-48
2022/06/26 01:21:28;;;;;;;;;;;;;;;19.90;100.00;100442.97;3055190;19;992;-47
2022/06/26 01:22:32;;;;;;;;;;;;;;;19.88;100.00;100441.41;3054910;19;923;-48
2022/06/26 01:23:34;;;;;;;;;;;;;;;19.86;100.00;100441.56;3054892;19;1332;-48
2022/06/26 01:24:39;;;;;;;;;;;;;;;19.84;100.00;100450.84;3055043;19;917;-48
2022/06/26 01:25:47;;;;;;;;;;;;;;;19.80;100.00;100449.47;3056075;19;953;-48
2022/06/26 01:26:52;;;;;;;;;;;;;;;19.77;100.00;100447.94;3054926;19;904;-48
2022/06/26 01:27:54;;;;;;;;;;;;;;;19.76;100.00;100448.94;3054454;19;866;-47
2022/06/26 01:28:58;;;;;;;;;;;;;;;19.74;100.00;100446.38;3054847;19;944;-47
2022/06/26 01:30:00;;;;;;;;;;;;;;;19.73;100.00;100449.22;3055183;19;897;-48
2022/06/26 01:31:06;;;;;;;;;;;;;;;19.71;100.00;100443.97;3054752;19;964;-47
2022/06/26 01:32:09;;;;;;;;;;;;;;;19.70;100.00;100447.66;3055077;19;1000;-48
2022/06/26 01:33:13;;;;;;;;;;;;;;;19.68;100.00;100449.69;3054392;19;1042;-48
2022/06/26 01:34:15;;;;;;;;;;;;;;;19.68;100.00;100444.25;3055065;19;988;-47
2022/06/26 01:35:20;;;;;;;;;;;;;;;19.66;100.00;100443.59;3054670;19;890;-48
2022/06/26 01:36:31;;;;;;;;;;;;;;;19.65;100.00;100447.31;3054826;19;896;-48
2022/06/26 01:37:36;;;;;;;;;;;;;;;19.63;100.00;100449.31;3054895;19;1039;-48
2022/06/26 01:38:42;;;;;;;;;;;;;;;19.61;100.00;100454.03;3054945;19;948;-48
2022/06/26 01:39:46;;;;;;;;;;;;;;;19.59;100.00;100450.59;3054749;19;937;-50
2022/06/26 01:40:51;;;;;;;;;;;;;;;19.57;100.00;100447.19;3054916;19;981;-48
2022/06/26 01:41:53;;;;;;;;;;;;;;;19.54;100.00;100452.94;3054537;19;660;-48
2022/06/26 01:42:58;;;;;;;;;;;;;;;19.50;100.00;100446.13;3054479;19;965;-48
2022/06/26 01:44:00;;;;;;;;;;;;;;;19.47;100.00;100451.78;3054761;19;898;-48
2022/06/26 01:45:05;;;;;;;;;;;;;;;19.43;100.00;100447.72;3053895;19;1609;-48
2022/06/26 01:46:07;;;;;;;;;;;;;;;19.37;100.00;100454.56;3055659;19;952;-48
2022/06/26 01:47:13;;;;;;;;;;;;;;;19.32;100.00;100447.94;3055012;19;1023;-47
2022/06/26 01:48:15;;;;;;;;;;;;;;;19.23;100.00;100441.53;3054710;19;981;-48
2022/06/26 01:49:21;;;;;;;;;;;;;;;19.17;100.00;100444.88;3054679;19;1051;-47
2022/06/26 01:50:23;;;;;;;;;;;;;;;19.02;100.00;100430.13;3054724;19;1028;-48
2022/06/26 01:51:27;;;;;;;;;;;;;;;19.02;100.00;100435.53;3054752;19;1077;-47
2022/06/26 01:52:29;;;;;;;;;;;;;;;18.94;100.00;100448.97;3055927;19;1145;-48
2022/06/26 01:53:34;;;;;;;;;;;;;;;18.86;100.00;100447.00;3057469;19;933;-48
2022/06/26 01:54:36;;;;;;;;;;;;;;;18.78;100.00;100444.19;3058024;19;989;-48
2022/06/26 01:55:41;;;;;;;;;;;;;;;18.71;100.00;100437.69;3057673;19;885;-47
2022/06/26 01:56:48;;;;;;;;;;;;;;;18.64;100.00;100437.41;3056544;19;1853;-48
2022/06/26 01:57:51;;;;;;;;;;;;;;;18.57;100.00;100446.22;3057474;19;1061;-48
2022/06/26 01:58:59;;;;;;;;;;;;;;;18.52;100.00;100432.28;3058115;19;853;-48
2022/06/26 02:00:08;;;;;;;;;;;;;;;18.45;100.00;100436.59;3057394;19;910;-48
2022/06/26 02:01:17;;;;;;;;;;;;;;;18.41;100.00;100445.97;3057923;19;1087;-47
2022/06/26 02:02:19;;;;;;;;;;;;;;;18.35;100.00;100436.63;3057482;19;942;-48
2022/06/26 02:03:25;;;;;;;;;;;;;;;18.31;100.00;100440.59;3057855;19;787;-48
2022/06/26 02:04:27;;;;;;;;;;;;;;;18.29;100.00;100435.34;3057427;19;1177;-47
2022/06/26 02:05:31;;;;;;;;;;;;;;;18.26;100.00;100432.06;3057665;19;1003;-48
2022/06/26 02:06:33;;;;;;;;;;;;;;;18.23;100.00;100441.31;3057498;19;1016;-48
2022/06/26 02:07:38;;;;;;;;;;;;;;;18.20;100.00;100433.50;3057635;19;988;-48
2022/06/26 02:08:41;;;;;;;;;;;;;;;18.18;100.00;100432.78;3057619;19;943;-48
2022/06/26 02:13:43;;;;;;;;;;;;;;;18.09;100.00;100436.38;3057476;19;953;-47
2022/06/26 02:14:46;;;;;;;;;;;;;;;18.09;100.00;100430.97;3057106;19;1048;-48
2022/06/26 02:15:51;;;;;;;;;;;;;;;18.08;100.00;100423.84;3057526;19;897;-47
2022/06/26 02:16:56;;;;;;;;;;;;;;;18.11;100.00;100433.53;3056367;19;1869;-47
2022/06/26 02:18:00;;;;;;;;;;;;;;;18.11;100.00;100426.28;3057300;19;1057;-47
2022/06/26 02:19:04;;;;;;;;;;;;;;;18.11;100.00;100431.69;3057158;19;1661;-47
2022/06/26 02:20:06;;;;;;;;;;;;;;;18.12;100.00;100430.66;3058005;19;866;-47
2022/06/26 02:21:12;;;;;;;;;;;;;;;18.07;100.00;100415.91;3058140;19;1697;-47
2022/06/26 02:22:14;;;;;;;;;;;;;;;18.15;100.00;100430.38;3058444;19;933;-47
2022/06/26 02:23:18;;;;;;;;;;;;;;;18.20;100.00;100433.50;3058139;19;956;-48
2022/06/26 02:24:20;;;;;;;;;;;;;;;18.23;100.00;100432.38;3057255;19;1005;-48
2022/06/26 02:25:26;;;;;;;;;;;;;;;18.27;100.00;100433.78;3057010;19;1319;-48
2022/06/26 02:26:31;;;;;;;;;;;;;;;18.30;100.00;100439.75;3057317;19;941;-47
2022/06/26 02:27:32;;;;;;;;;;;;;;;18.34;100.00;100449.28;3057516;19;987;-47
2022/06/26 02:28:39;;;;;;;;;;;;;;;18.39;100.00;100437.16;3057962;19;1000;-47
2022/06/26 02:29:41;;;;;;;;;;;;;;;18.44;100.00;100429.47;3057934;19;1149;-48
2022/06/26 02:30:47;;;;;;;;;;;;;;;18.48;100.00;100442.53;3057641;19;865;-48
2022/06/26 02:31:50;;;;;;;;;;;;;;;18.56;100.00;100439.13;3056912;19;1026;-47
2022/06/26 02:32:56;;;;;;;;;;;;;;;18.67;100.00;100444.38;3057056;19;948;-48
2022/06/26 02:34:00;;;;;;;;;;;;;;;18.73;100.00;100449.19;3057036;19;907;-48
2022/06/26 02:35:02;;;;;;;;;;;;;;;18.77;100.00;100458.72;3057176;19;1012;-49
2022/06/26 02:36:09;;;;;;;;;;;;;;;18.80;100.00;100449.47;3057339;19;1142;-48
2022/06/26 02:37:14;;;;;;;;;;;;;;;18.84;100.00;100449.00;3056285;19;1838;-48
2022/06/26 02:38:21;;;;;;;;;;;;;;;18.99;100.00;100458.31;3057278;19;818;-48
2022/06/26 02:39:23;;;;;;;;;;;;;;;19.30;100.00;100466.16;3056924;19;980;-48
2022/06/26 02:40:29;;;;;;;;;;;;;;;19.57;100.00;100468.84;3056861;19;1811;-48
2022/06/26 02:41:35;;;;;;;;;;;;;;;19.86;100.00;100467.81;3056934;19;972;-48
2022/06/26 02:42:37;;;;;;;;;;;;;;;20.13;100.00;100471.28;3057026;19;965;-48
2022/06/26 02:43:41;;;;;;;;;;;;;;;20.41;100.00;100485.59;3056501;19;925;-48
2022/06/26 02:44:43;;;;;;;;;;;;;;;20.72;100.00;100495.97;3056510;19;1413;-48
2022/06/26 02:45:48;;;;;;;;;;;;;;;20.95;100.00;100494.44;3057816;19;885;-47
2022/06/26 02:46:50;;;;;;;;;;;;;;;21.16;100.00;100497.59;3057993;19;932;-48
2022/06/26 02:47:55;;;;;;;;;;;;;;;21.41;100.00;100497.72;3056834;19;969;-48
2022/06/26 02:48:58;;;;;;;;;;;;;;;21.71;100.00;100497.16;3057322;19;948;-48
2022/06/26 02:50:03;;;;;;;;;;;;;;;22.03;100.00;100511.84;3057049;19;1160;-48
2022/06/26 02:51:08;;;;;;;;;;;;;;;22.32;100.00;100512.22;3057000;19;895;-48
2022/06/26 02:52:10;;;;;;;;;;;;;;;22.61;100.00;100523.41;3056647;19;1032;-48
2022/06/26 02:53:15;;;;;;;;;;;;;;;22.85;100.00;100524.44;3056872;19;885;-48
2022/06/26 02:54:17;;;;;;;;;;;;;;;23.15;100.00;100525.56;3056295;19;1000;-48
2022/06/26 02:55:21;;;;;;;;;;;;;;;23.41;100.00;100533.50;3056957;19;877;-48
2022/06/26 02:56:24;;;;;;;;;;;;;;;23.66;100.00;100537.84;3056396;19;1060;-48
2022/06/26 02:57:28;;;;;;;;;;;;;;;23.89;100.00;100527.84;3056238;19;1864;-48
2022/06/26 02:58:31;;;;;;;;;;;;;;;24.15;100.00;100530.19;3056272;19;945;-48
2022/06/26 02:59:38;;;;;;;;;;;;;;;24.41;100.00;100530.72;3056939;19;930;-48
2022/06/26 03:00:44;;;;;;;;;;;;;;;24.72;100.00;100533.34;3056665;19;1261;-48
2022/06/26 03:01:46;;;;;;;;;;;;;;;25.01;98.54;100537.19;3056753;19;1028;-48
2022/06/26 03:03:10;;;;;;;;;;;;;;;25.38;96.03;100544.44;3056484;19;1260;-49
2022/06/26 03:04:12;;;;;;;;;;;;;;;25.66;94.77;100545.50;3056839;19;1093;-48
2022/06/26 03:05:17;;;;;;;;;;;;;;;25.89;92.68;100542.63;3056842;19;1197;-48
2022/06/26 03:06:19;;;;;;;;;;;;;;;26.16;90.25;100539.16;3056902;19;897;-48
2022/06/26 03:07:23;;;;;;;;;;;;;;;26.44;88.62;100552.09;3056538;19;1076;-48
2022/06/26 03:08:26;;;;;;;;;;;;;;;26.74;87.10;100553.63;3056257;19;1128;-49
2022/06/26 03:09:32;;;;;;;;;;;;;;;27.03;85.11;100552.63;3056472;19;1274;-48
2022/06/26 03:10:34;;;;;;;;;;;;;;;27.31;82.85;100563.53;3056361;19;1079;-48
2022/06/26 03:11:41;;;;;;;;;;;;;;;27.59;80.60;100553.41;3056678;19;961;-49
2022/06/26 03:12:47;;;;;;;;;;;;;;;27.85;78.47;100551.81;3056567;19;952;-48
2022/06/26 03:13:51;;;;;;;;;;;;;;;28.12;76.59;100553.63;3056457;19;1016;-48
2022/06/26 03:14:53;;;;;;;;;;;;;;;28.40;74.33;100561.72;3057141;19;977;-48
2022/06/26 03:15:58;;;;;;;;;;;;;;;28.67;72.42;100559.84;3056414;19;1707;-49
2022/06/26 03:17:00;;;;;;;;;;;;;;;28.96;70.34;100564.97;3056139;19;1849;-48
2022/06/26 03:18:05;;;;;;;;;;;;;;;29.21;68.70;100556.03;3056354;19;941;-48
2022/06/26 03:19:07;;;;;;;;;;;;;;;29.42;66.96;100555.81;3056411;19;933;-48
2022/06/26 03:20:14;;;;;;;;;;;;;;;29.59;65.70;100564.41;3056544;19;1003;-48
2022/06/26 03:21:16;;;;;;;;;;;;;;;29.80;64.99;100563.31;3056279;19;1150;-48
2022/06/26 03:22:21;;;;;;;;;;;;;;;29.94;63.78;100568.53;3056730;19;1161;-48
2022/06/26 03:24:01;;;;;;;;;;;;;;;30.10;63.27;100564.44;3055715;19;890;-48
2022/06/26 03:24:48;;;;;;;;;;;;;;;30.35;62.23;100570.00;3056232;19;2592;-48
2022/06/26 03:25:50;;;;;;;;;;;;;;;30.52;61.52;100573.94;3056122;19;1268;-48
2022/06/26 03:26:55;;;;;;;;;;;;;;;30.72;60.34;100574.66;3056372;19;1705;-49
2022/06/26 03:28:00;;;;;;;;;;;;;;;30.97;59.59;100582.94;3055892;19;943;-48
2022/06/26 03:30:26;;;;;;;;;;;;;;;31.56;57.45;100577.91;3052994;19;1424;-48
2022/06/26 03:31:27;;;;;;;;;;;;;;;31.81;56.80;100579.53;3054924;19;1311;-47
2022/06/26 03:32:32;;;;;;;;;;;;;;;32.09;56.26;100578.13;3054959;19;1324;-48
2022/06/26 03:33:39;;;;;;;;;;;;;;;32.43;56.22;100582.97;3057827;19;1279;-49
2022/06/26 03:34:44;;;;;;;;;;;;;;;32.73;55.52;100590.41;3056228;19;1012;-48
2022/06/26 03:35:46;;;;;;;;;;;;;;;33.04;54.86;100589.25;3056646;19;931;-48
2022/06/26 03:36:51;;;;;;;;;;;;;;;33.35;54.16;100586.16;3056037;19;1023;-48
2022/06/26 03:37:53;;;;;;;;;;;;;;;33.62;52.76;100586.50;3055570;19;1845;-49
2022/06/26 03:38:59;;;;;;;;;;;;;;;33.89;51.84;100593.22;3055882;19;980;-49
2022/06/26 03:40:04;;;;;;;;;;;;;;;34.16;50.69;100598.19;3056283;19;1340;-49
2022/06/26 03:41:09;;;;;;;;;;;;;;;34.35;50.08;100585.00;3056094;19;1855;-48
2022/06/26 03:42:11;;;;;;;;;;;;;;;34.56;49.58;100593.44;3057770;19;917;-48
2022/06/26 03:43:16;;;;;;;;;;;;;;;34.79;49.17;100588.84;3055693;19;983;-48
2022/06/26 03:44:21;;;;;;;;;;;;;;;35.00;48.56;100602.00;3056261;19;912;-48
2022/06/26 03:45:26;;;;;;;;;;;;;;;35.19;48.23;100602.56;3055835;19;931;-48
2022/06/26 03:46:28;;;;;;;;;;;;;;;35.36;47.80;100600.66;3056132;19;969;-48
2022/06/26 03:47:33;;;;;;;;;;;;;;;35.55;47.28;100606.75;3055878;19;959;-49
2022/06/26 03:48:36;;;;;;;;;;;;;;;35.76;47.15;100607.88;3055833;19;868;-48
2022/06/26 03:49:41;;;;;;;;;;;;;;;36.00;46.57;100610.16;3055266;19;1079;-48
2022/06/26 03:50:43;;;;;;;;;;;;;;;36.27;46.46;100603.81;3057517;19;1576;-49
2022/06/26 03:51:48;;;;;;;;;;;;;;;36.55;47.57;100611.91;3055709;19;860;-48
2022/06/26 03:52:52;;;;;;;;;;;;;;;36.81;47.97;100610.25;3056171;19;1080;-49
2022/06/26 03:53:54;;;;;;;;;;;;;;;37.04;47.53;100606.28;3055633;19;943;-49
2022/06/26 03:54:59;;;;;;;;;;;;;;;37.16;47.02;100612.53;3056182;19;893;-48
2022/06/26 03:56:01;;;;;;;;;;;;;;;37.20;46.60;100612.81;3055921;19;985;-48
2022/06/26 03:57:06;;;;;;;;;;;;;;;37.20;46.63;100613.63;3056169;19;1362;-49
2022/06/26 03:58:08;;;;;;;;;;;;;;;37.32;46.75;100616.22;3057832;19;1865;-49
2022/06/26 03:59:12;;;;;;;;;;;;;;;37.46;45.85;100612.72;3056019;19;928;-49
2022/06/26 04:00:17;;;;;;;;;;;;;;;37.63;45.06;100620.09;3055481;19;1296;-48
2022/06/26 04:01:19;;;;;;;;;;;;;;;37.77;44.72;100613.78;3057416;19;964;-48
2022/06/26 04:02:28;;;;;;;;;;;;;;;37.90;44.29;100612.44;3055706;19;931;-48
2022/06/26 04:03:30;;;;;;;;;;;;;;;38.06;43.77;100616.94;3055695;19;1427;-48
2022/06/26 04:04:36;;;;;;;;;;;;;;;38.24;43.46;100617.59;3055525;19;1214;-48
2022/06/26 04:05:38;;;;;;;;;;;;;;;38.42;42.98;100619.84;3056034;19;1533;-49
2022/06/26 04:06:42;;;;;;;;;;;;;;;38.60;42.51;100611.03;3055751;19;956;-48
2022/06/26 04:07:53;;;;;;;;;;;;;;;38.80;42.03;100624.97;3055602;19;1121;-48
2022/06/26 04:09:01;;;;;;;;;;;;;;;38.94;41.77;100621.63;3055633;19;906;-48
2022/06/26 04:10:03;;;;;;;;;;;;;;;39.02;41.67;100627.53;3055818;19;1690;-48
2022/06/26 04:11:08;;;;;;;;;;;;;;;39.13;41.52;100619.97;3055680;19;914;-48
2022/06/26 04:12:11;;;;;;;;;;;;;;;39.29;41.53;100630.03;3055660;19;996;-49
2022/06/26 04:13:18;;;;;;;;;;;;;;;39.38;41.10;100628.31;3055639;19;1027;-48
2022/06/26 04:14:20;;;;;;;;;;;;;;;39.56;41.05;100624.97;3055603;19;877;-48
2022/06/26 04:15:25;;;;;;;;;;;;;;;39.72;40.64;100634.16;3054834;19;865;-49
2022/06/26 04:16:27;;;;;;;;;;;;;;;39.91;40.86;100637.19;3055427;19;992;-49
2022/06/26 04:17:32;;;;;;;;;;;;;;;40.12;40.83;100640.72;3055807;19;1013;-49
2022/06/26 04:18:41;;;;;;;;;;;;;;;40.35;40.79;100642.03;3054502;19;1841;-49
2022/06/26 04:19:47;;;;;;;;;;;;;;;40.58;40.49;100638.53;3055661;19;966;-49
2022/06/26 04:20:48;;;;;;;;;;;;;;;40.79;40.28;100645.72;3055368;19;962;-48
2022/06/26 04:21:53;;;;;;;;;;;;;;;41.03;40.32;100642.19;3055687;19;897;-48
2022/06/26 04:22:57;;;;;;;;;;;;;;;41.23;38.89;100642.00;3055658;19;1221;-49
2022/06/26 04:24:02;;;;;;;;;;;;;;;41.39;38.85;100643.53;3055416;19;929;-49
2022/06/26 04:25:04;;;;;;;;;;;;;;;41.52;38.42;100640.06;3055573;19;1327;-48
2022/06/26 04:26:09;;;;;;;;;;;;;;;41.65;37.92;100644.97;3055729;19;932;-49
2022/06/26 04:27:11;;;;;;;;;;;;;;;41.79;37.76;100644.25;3055803;19;842;-49
2022/06/26 04:28:15;;;;;;;;;;;;;;;41.92;37.61;100643.53;3055579;19;1171;-49
2022/06/26 04:29:20;;;;;;;;;;;;;;;41.99;37.46;100641.25;3054977;19;996;-49
2022/06/26 04:30:25;;;;;;;;;;;;;;;42.08;36.95;100636.63;3055013;19;1237;-49
2022/06/26 04:31:27;;;;;;;;;;;;;;;42.12;36.76;100646.13;3055262;19;968;-49
2022/06/26 04:32:31;;;;;;;;;;;;;;;42.20;36.75;100645.44;3055579;19;1015;-49
2022/06/26 04:33:40;;;;;;;;;;;;;;;42.29;36.56;100632.41;3054962;19;1035;-49
2022/06/26 04:34:45;;;;;;;;;;;;;;;42.38;36.33;100639.06;3056269;19;1337;-49
2022/06/26 04:35:47;;;;;;;;;;;;;;;42.46;36.59;100636.72;3055324;19;920;-49
2022/06/26 04:36:51;;;;;;;;;;;;;;;42.47;35.98;100638.38;3056569;19;909;-48
2022/06/26 04:37:55;;;;;;;;;;;;;;;42.51;36.42;100637.44;3055236;19;1032;-49
2022/06/26 04:38:59;;;;;;;;;;;;;;;42.56;35.80;100639.34;3054598;19;1850;-48
2022/06/26 04:40:01;;;;;;;;;;;;;;;42.70;36.10;100637.47;3055066;19;988;-47
2022/06/26 04:41:31;;;;;;;;;;;;;;;42.82;36.06;100645.44;3055442;19;878;-47
2022/06/26 04:42:29;;;;;;;;;;;;;;;42.91;35.75;100644.44;3055394;19;2358;-47
2022/06/26 04:43:33;;;;;;;;;;;;;;;42.87;35.17;100646.19;3054917;19;971;-46
2022/06/26 04:44:36;;;;;;;;;;;;;;;42.89;35.38;100652.31;3055430;19;1039;-47
2022/06/26 04:45:40;;;;;;;;;;;;;;;42.90;35.28;100650.34;3055039;19;1048;-46
2022/06/26 04:46:42;;;;;;;;;;;;;;;42.92;34.98;100657.34;3055422;19;865;-46
2022/06/26 04:47:47;;;;;;;;;;;;;;;42.86;34.99;100652.13;3054851;19;1854;-46
2022/06/26 04:48:52;;;;;;;;;;;;;;;42.78;35.59;100648.03;3055084;19;1208;-47
2022/06/26 04:49:57;;;;;;;;;;;;;;;42.76;35.12;100650.25;3054924;19;1063;-47
2022/06/26 04:51:01;;;;;;;;;;;;;;;42.72;35.29;100652.03;3055414;19;944;-47
2022/06/26 04:52:06;;;;;;;;;;;;;;;42.74;35.22;100649.75;3055230;19;909;-47
2022/06/26 04:53:13;;;;;;;;;;;;;;;42.84;35.61;100655.25;3054806;19;980;-48
2022/06/26 04:54:17;;;;;;;;;;;;;;;42.94;35.09;100657.03;3055130;19;947;-46
2022/06/26 04:55:21;;;;;;;;;;;;;;;42.97;35.07;100648.84;3055260;19;862;-47
2022/06/26 04:56:27;;;;;;;;;;;;;;;43.02;34.98;100645.94;3055129;19;916;-47
2022/06/26 04:57:32;;;;;;;;;;;;;;;43.07;34.87;100654.28;3055057;19;948;-48
2022/06/26 04:58:37;;;;;;;;;;;;;;;43.14;35.46;100645.44;3054885;19;1870;-47
2022/06/26 04:59:39;;;;;;;;;;;;;;;43.24;35.42;100656.53;3055193;19;935;-46
2022/06/26 05:00:43;;;;;;;;;;;;;;;43.29;34.78;100653.66;3054861;19;1076;-46
2022/06/26 05:01:49;;;;;;;;;;;;;;;43.38;35.17;100660.22;3054920;19;1084;-47
2022/06/26 05:03:17;;;;;;;;;;;;;;;43.38;34.51;100659.38;3055201;19;1072;-47
2022/06/26 05:04:40;;;;;;;;;;;;;;;43.38;34.50;100653.75;3054895;19;984;-47
2022/06/26 05:05:54;;;;;;;;;;;;;;;43.38;34.72;100662.19;3055848;19;1268;-47
2022/06/26 05:07:14;;;;;;;;;;;;;;;43.40;35.17;100662.72;3055109;19;964;-47
2022/06/26 05:08:16;;;;;;;;;;;;;;;43.41;34.64;100662.41;3054862;19;981;-46
2022/06/26 05:09:21;;;;;;;;;;;;;;;43.42;34.40;100666.06;3054726;19;935;-47
2022/06/26 05:10:23;;;;;;;;;;;;;;;43.49;34.61;100666.47;3055186;19;869;-46
2022/06/26 05:11:30;;;;;;;;;;;;;;;43.59;35.13;100673.94;3054985;19;897;-47
2022/06/26 05:12:32;;;;;;;;;;;;;;;43.63;35.07;100660.91;3054799;19;981;-47
2022/06/26 05:14:09;;;;;;;;;;;;;;;43.71;35.41;100669.47;3054655;19;1233;-47
2022/06/26 05:15:19;;;;;;;;;;;;;;;43.65;35.01;100667.91;3055521;19;1012;-46
2022/06/26 05:16:23;;;;;;;;;;;;;;;43.55;33.84;100668.06;3055206;19;897;-46
2022/06/26 05:17:25;;;;;;;;;;;;;;;43.30;34.46;100668.53;3054849;19;909;-47
2022/06/26 05:18:30;;;;;;;;;;;;;;;42.52;34.50;100670.00;3055268;19;925;-47
2022/06/26 05:19:32;;;;;;;;;;;;;;;41.04;36.29;100660.66;3053861;19;1868;-46
2022/06/26 05:20:36;;;;;;;;;;;;;;;39.39;37.67;100668.25;3054950;19;1088;-47
2022/06/26 05:21:40;;;;;;;;;;;;;;;38.02;39.94;100666.00;3054974;19;944;-47
2022/06/26 05:22:45;;;;;;;;;;;;;;;36.96;41.17;100656.81;3055051;19;892;-47
2022/06/26 05:23:49;;;;;;;;;;;;;;;35.99;42.38;100658.47;3054753;19;936;-47
2022/06/26 05:24:53;;;;;;;;;;;;;;;35.17;43.49;100644.44;3055182;19;951;-47
2022/06/26 05:25:56;;;;;;;;;;;;;;;34.43;45.01;100642.78;3054950;19;1041;-48
2022/06/26 05:27:01;;;;;;;;;;;;;;;33.78;46.12;100652.22;3054805;19;984;-47
2022/06/26 05:28:13;;;;;;;;;;;;;;;33.10;47.87;100640.84;3057873;19;1019;-47
2022/06/26 05:29:17;;;;;;;;;;;;;;;32.54;49.16;100637.44;3057840;19;936;-48
2022/06/26 05:30:19;;;;;;;;;;;;;;;32.06;50.32;100642.94;3057012;19;1198;-49
2022/06/26 05:31:24;;;;;;;;;;;;;;;31.63;51.80;100643.00;3057840;19;1348;-47
2022/06/26 05:32:26;;;;;;;;;;;;;;;31.23;53.36;100641.69;3057978;19;968;-48
2022/06/26 05:33:32;;;;;;;;;;;;;;;30.84;54.15;100643.66;3057768;19;793;-47
2022/06/26 05:34:34;;;;;;;;;;;;;;;30.33;54.71;100644.59;3057678;19;980;-47
2022/06/26 05:35:40;;;;;;;;;;;;;;;30.05;56.50;100636.69;3057762;19;896;-48
2022/06/26 05:36:42;;;;;;;;;;;;;;;29.74;57.05;100637.38;3058029;19;881;-48
2022/06/26 05:37:47;;;;;;;;;;;;;;;29.45;57.60;100635.13;3057821;19;865;-47
2022/06/26 05:38:49;;;;;;;;;;;;;;;29.17;58.64;100639.97;3057735;19;936;-47
2022/06/26 05:39:53;;;;;;;;;;;;;;;28.88;59.25;100639.34;3056565;19;1834;-47
2022/06/26 05:40:56;;;;;;;;;;;;;;;28.64;60.22;100645.41;3057894;19;948;-49